Time;durP1;ratioP1;P1;durP2;ratioP2;P2;SDS_P1;SDS_P2;PMS_P1;PMS_P2;Temp;Humidity;BMP_temperature;BMP_pressure;BME280_temperature;BME280_humidity;BME280_pressure;Samples;Min_cycle;Max_cycle;Signal;HPM_P1;HPM_P2
2021/03/17 00:00:13;;;;;;;17.82;9.23;;;;;;;27.11;28.48;158281.58;1683687;85;21337;-74
2021/03/17 00:03:03;;;;;;;21.85;9.30;;;;;;;27.07;28.55;158270.92;1687457;85;21183;-74
2021/03/17 00:05:53;;;;;;;17.00;9.40;;;;;;;27.12;28.52;158284.25;1687680;85;21191;-74
2021/03/17 00:08:44;;;;;;;24.63;8.85;;;;;;;27.07;28.59;158270.92;1687935;83;21136;-74
2021/03/17 00:11:34;;;;;;;11.38;7.37;;;;;;;27.08;28.59;158273.59;1687321;85;21225;-74
2021/03/17 00:14:25;;;;;;;18.62;8.45;;;;;;;27.00;28.60;158252.28;1698609;83;21332;-74
2021/03/17 00:17:16;;;;;;;19.75;8.43;;;;;;;26.94;28.66;158236.31;1678458;83;21368;-74
2021/03/17 00:20:09;;;;;;;13.65;8.08;;;;;;;26.99;28.66;158250.94;1708860;83;21199;-74
2021/03/17 00:22:59;;;;;;;11.35;8.23;;;;;;;26.87;28.62;158219.03;1668454;83;21174;-74
2021/03/17 00:25:50;;;;;;;16.23;7.50;;;;;;;26.77;28.57;158191.16;1689111;84;21326;-74
2021/03/17 00:28:40;;;;;;;12.58;7.87;;;;;;;26.69;28.63;158171.20;1710890;83;21329;-80
2021/03/17 00:31:30;;;;;;;24.80;7.83;;;;;;;26.66;28.66;158163.22;1690052;83;21357;-74
2021/03/17 00:34:20;;;;;;;11.60;7.15;;;;;;;26.74;28.64;158183.16;1692884;82;21868;-74
2021/03/17 00:37:10;;;;;;;12.70;8.45;;;;;;;26.78;28.69;158195.13;1720230;83;21361;-74
2021/03/17 00:40:00;;;;;;;18.50;7.40;;;;;;;26.57;28.97;158137.95;1671759;84;21305;-73
2021/03/17 00:42:51;;;;;;;17.30;7.40;;;;;;;26.87;28.64;158219.03;1693732;83;21171;-75
2021/03/17 00:45:40;;;;;;;10.70;6.53;;;;;;;26.89;28.61;158223.05;1686287;84;21598;-73
2021/03/17 00:48:16;;;;;;;13.60;6.95;;;;;;;26.88;28.58;158220.39;1676479;83;21841;-73
2021/03/17 00:50:50;;;;;;;16.12;7.33;;;;;;;26.92;28.59;158230.98;1690145;83;21317;-74
2021/03/17 00:53:23;;;;;;;12.78;6.85;;;;;;;26.95;28.50;158240.33;1687069;83;21230;-74
2021/03/17 00:55:56;;;;;;;13.20;7.12;;;;;;;26.80;28.70;158199.09;1685260;85;21388;-75
2021/03/17 00:58:31;;;;;;;21.05;8.43;;;;;;;26.85;28.72;158213.70;1682554;84;21373;-75
2021/03/17 01:01:03;;;;;;;19.35;8.10;;;;;;;26.82;28.69;158204.41;1678453;83;21826;-74
2021/03/17 01:03:36;;;;;;;23.00;7.97;;;;;;;26.76;28.79;158189.80;1673905;83;21333;-74
2021/03/17 01:06:09;;;;;;;19.10;7.42;;;;;;;26.89;28.77;158223.05;1682402;85;21198;-74
2021/03/17 01:08:42;;;;;;;15.83;7.60;;;;;;;26.87;28.74;158219.03;1689520;83;21663;-75
2021/03/17 01:11:14;;;;;;;15.60;6.60;;;;;;;26.79;28.83;158197.78;1684320;83;21180;-74
2021/03/17 01:13:48;;;;;;;12.95;6.90;;;;;;;26.79;28.81;158197.78;1639968;86;21194;-74
2021/03/17 01:16:20;;;;;;;15.05;7.20;;;;;;;26.89;28.71;158224.36;1671691;84;21194;-75
2021/03/17 01:18:53;;;;;;;11.12;7.60;;;;;;;26.89;28.58;158223.05;1660807;84;21789;-74
2021/03/17 01:21:25;;;;;;;14.68;6.87;;;;;;;26.93;28.51;158233.66;1735781;82;21253;-74
2021/03/17 01:23:58;;;;;;;15.80;8.20;;;;;;;26.89;28.60;158223.05;1718229;82;21716;-74
2021/03/17 01:26:30;;;;;;;12.10;8.40;;;;;;;26.94;28.57;158237.67;1701126;84;21889;-74
2021/03/17 01:29:02;;;;;;;19.45;8.00;;;;;;;28.23;27.12;158582.22;1722728;80;21686;-74
2021/03/17 01:31:35;;;;;;;14.43;8.58;;;;;;;27.15;28.22;158292.19;1772595;81;21405;-74
2021/03/17 01:34:07;;;;;;;15.15;7.70;;;;;;;26.88;28.45;158221.69;1755826;81;21215;-74
2021/03/17 01:36:40;;;;;;;15.25;7.25;;;;;;;26.75;28.57;158185.83;1754843;81;21348;-74
2021/03/17 01:39:13;;;;;;;15.43;7.95;;;;;;;26.64;28.67;158157.91;1742181;81;21335;-74
2021/03/17 01:41:45;;;;;;;14.83;7.85;;;;;;;26.73;28.64;158181.86;1710016;81;21184;-74
2021/03/17 01:44:19;;;;;;;21.87;7.85;;;;;;;26.91;28.51;158228.33;1765596;81;21376;-74
2021/03/17 01:46:52;;;;;;;15.32;7.72;;;;;;;27.01;28.44;158254.95;1760684;80;21197;-74
2021/03/17 01:49:25;;;;;;;13.38;7.10;;;;;;;26.95;28.41;158240.33;1734145;82;21219;-75
2021/03/17 01:51:57;;;;;;;15.63;8.00;;;;;;;26.89;28.29;158223.05;1702057;84;21228;-74
2021/03/17 01:54:29;;;;;;;17.60;8.18;;;;;;;26.73;28.38;158181.86;1702041;84;21184;-74
2021/03/17 01:57:02;;;;;;;13.88;7.60;;;;;;;26.24;28.70;158050.23;1684732;83;21313;-74
2021/03/17 01:59:34;;;;;;;14.18;8.40;;;;;;;26.47;28.67;158110.09;1715773;83;21254;-76
2021/03/17 02:02:06;;;;;;;16.00;7.37;;;;;;;26.49;28.78;158116.72;1669481;83;21333;-74
2021/03/17 02:04:39;;;;;;;16.57;7.78;;;;;;;26.68;28.52;158168.55;1653514;87;21326;-74
2021/03/17 02:07:12;;;;;;;17.82;8.03;;;;;;;26.63;28.46;158153.94;1680058;83;21376;-75
2021/03/17 02:09:45;;;;;;;13.93;7.85;;;;;;;26.50;28.61;158119.38;1689677;83;21279;-74
2021/03/17 02:12:57;;;;;;;18.40;7.50;;;;;;;26.52;28.61;158123.34;1684250;84;21309;-74
2021/03/17 02:15:55;;;;;;;20.10;7.90;;;;;;;26.56;28.61;158136.66;1743877;80;21325;-74
2021/03/17 02:19:07;;;;;;;14.80;7.85;;;;;;;26.49;28.63;158116.72;1767745;81;21194;-75
2021/03/17 02:21:59;;;;;;;20.75;8.95;;;;;;;26.43;28.64;158100.80;1743851;81;21183;-74
2021/03/17 02:24:53;;;;;;;20.75;8.98;;;;;;;26.39;28.64;158090.09;1736428;82;21868;-74
2021/03/17 02:27:59;;;;;;;13.22;7.62;;;;;;;26.27;28.73;158058.22;1754564;80;21819;-74
2021/03/17 02:30:45;;;;;;;18.62;8.58;;;;;;;26.32;28.75;158071.53;1744007;80;21189;-75
2021/03/17 02:33:50;;;;;;;13.08;7.25;;;;;;;26.35;28.75;158078.16;1756125;80;21284;-74
2021/03/17 02:37:00;;;;;;;13.32;7.72;;;;;;;26.31;28.65;158067.50;1726580;83;21336;-74
2021/03/17 02:39:53;;;;;;;15.38;7.28;;;;;;;26.25;28.83;158051.59;1679201;85;21162;-75
2021/03/17 02:42:30;;;;;;;14.65;7.08;;;;;;;26.28;28.82;158060.88;1748313;80;21343;-74
2021/03/17 02:45:14;;;;;;;14.73;7.42;;;;;;;26.33;28.69;158074.13;1781679;80;21387;-75
2021/03/17 02:48:04;;;;;;;12.85;7.08;;;;;;;26.12;28.91;158018.34;1765196;80;21166;-75
2021/03/17 02:50:37;;;;;;;;;;;;;;;26.06;28.94;158002.44;1761769;80;21312;-74
2021/03/17 02:53:09;;;;;;;14.98;6.72;;;;;;;26.06;28.97;158001.08;1771140;80;20540;-74
2021/03/17 02:55:55;;;;;;;16.00;7.58;;;;;;;26.08;28.99;158007.75;1716190;82;21812;-74
2021/03/17 02:58:28;;;;;;;12.23;7.05;;;;;;;26.13;28.95;158019.70;1757150;80;21655;-74
2021/03/17 03:01:00;;;;;;;20.85;8.08;;;;;;;26.12;28.92;158018.34;1750022;80;21158;-74
2021/03/17 03:03:34;;;;;;;15.63;8.18;;;;;;;26.07;29.01;158005.09;1743850;82;21677;-74
2021/03/17 03:06:07;;;;;;;15.08;7.22;;;;;;;26.17;28.98;158031.66;1743793;82;21178;-74
2021/03/17 03:08:40;;;;;;;15.90;6.87;;;;;;;26.23;28.76;158047.56;1749427;80;21303;-74
2021/03/17 03:11:15;;;;;;;11.90;7.37;;;;;;;26.15;28.79;158025.03;1741161;80;21318;-74
2021/03/17 03:13:47;;;;;;;14.00;7.55;;;;;;;26.10;28.83;158011.72;1779836;80;21166;-74
2021/03/17 03:16:19;;;;;;;12.47;6.80;;;;;;;26.00;28.96;157985.16;1768514;80;21272;-74
2021/03/17 03:18:52;;;;;;;16.60;7.62;;;;;;;26.03;28.92;157994.45;1742627;80;21187;-73
2021/03/17 03:21:25;;;;;;;19.20;8.45;;;;;;;26.00;28.92;157985.16;1701001;81;21685;-73
2021/03/17 03:23:58;;;;;;;13.38;7.75;;;;;;;26.00;28.93;157986.47;1709778;82;21142;-74
2021/03/17 03:26:32;;;;;;;14.18;7.17;;;;;;;25.94;28.90;157970.56;1749077;80;21129;-74
2021/03/17 03:29:05;;;;;;;18.62;9.15;;;;;;;25.86;28.92;157949.33;1757921;80;21150;-74
2021/03/17 03:31:37;;;;;;;19.25;8.95;;;;;;;25.87;29.05;157951.94;1721382;83;21323;-74
2021/03/17 03:34:09;;;;;;;15.05;8.10;;;;;;;25.90;28.95;157958.61;1766854;80;21351;-74
2021/03/17 03:36:42;;;;;;;18.20;7.65;;;;;;;25.96;29.02;157974.53;1768604;80;21304;-74
2021/03/17 03:39:15;;;;;;;11.25;7.33;;;;;;;26.03;28.93;157993.16;1775237;80;21166;-73
2021/03/17 03:41:47;;;;;;;15.48;7.03;;;;;;;26.07;28.94;158003.75;1751977;80;21663;-74
2021/03/17 03:44:19;;;;;;;16.48;7.78;;;;;;;26.16;28.90;158027.64;1768089;81;21352;-74
2021/03/17 03:46:52;;;;;;;15.98;6.85;;;;;;;26.11;28.82;158015.69;1758764;81;21306;-75
2021/03/17 03:49:24;;;;;;;14.50;7.87;;;;;;;26.13;28.87;158019.70;1730081;81;21297;-75
2021/03/17 03:52:05;;;;;;;14.50;7.55;;;;;;;26.09;28.87;158009.06;1743293;81;21179;-76
2021/03/17 03:54:46;;;;;;;14.98;7.92;;;;;;;26.01;28.93;157989.13;1754659;81;21392;-75
2021/03/17 03:57:29;;;;;;;18.02;8.23;;;;;;;26.07;28.94;158003.75;1767569;81;21808;-75
2021/03/17 04:00:06;;;;;;;17.70;7.62;;;;;;;26.15;28.85;158025.03;1693959;83;21187;-75
2021/03/17 04:02:45;;;;;;;15.63;8.45;;;;;;;26.10;28.81;158011.72;1706365;83;21166;-75
2021/03/17 04:05:24;;;;;;;22.65;9.30;;;;;;;25.98;28.93;157979.84;1698694;84;21223;-77
2021/03/17 04:07:57;;;;;;;17.80;8.88;;;;;;;25.89;28.98;157955.95;1687945;83;21316;-77
2021/03/17 04:10:29;;;;;;;16.50;7.90;;;;;;;25.87;29.03;157950.63;1698057;84;21280;-76
2021/03/17 04:13:02;;;;;;;16.35;7.55;;;;;;;25.97;29.03;157977.19;1702075;83;21155;-76
2021/03/17 04:15:37;;;;;;;15.25;7.60;;;;;;;26.00;29.06;157985.16;1683009;84;21330;-76
2021/03/17 04:18:15;;;;;;;16.07;8.05;;;;;;;26.09;28.92;158009.06;1700103;82;21182;-77
2021/03/17 04:20:53;;;;;;;14.80;8.00;;;;;;;26.04;28.95;157997.11;1701996;84;21212;-76
2021/03/17 04:23:26;;;;;;;15.58;7.45;;;;;;;26.05;28.94;157999.78;1699246;84;21637;-77
2021/03/17 04:25:58;;;;;;;17.02;8.15;;;;;;;26.05;28.94;157998.42;1694185;83;21228;-77
2021/03/17 04:28:31;;;;;;;13.68;7.40;;;;;;;26.16;28.91;158027.64;1672213;83;21326;-77
2021/03/17 04:31:04;;;;;;;15.20;7.30;;;;;;;26.23;28.91;158046.27;1645098;87;21372;-76
2021/03/17 04:33:36;;;;;;;14.98;8.15;;;;;;;26.29;28.88;158062.19;1676693;84;21191;-74
2021/03/17 04:36:10;;;;;;;16.65;7.17;;;;;;;26.40;28.78;158092.77;1646574;84;21394;-79
2021/03/17 04:38:42;;;;;;;12.33;6.65;;;;;;;26.50;28.74;158118.08;1721554;81;21361;-80
2021/03/17 04:41:15;;;;;;;9.53;7.05;;;;;;;26.52;28.63;158124.70;1717303;81;21836;-75
2021/03/17 04:43:48;;;;;;;14.58;8.38;;;;;;;26.47;28.67;158110.09;1714258;81;21831;-79
2021/03/17 04:46:22;;;;;;;12.82;7.65;;;;;;;26.44;28.74;158103.47;1714447;81;21757;-82
2021/03/17 04:48:54;;;;;;;18.27;7.62;;;;;;;26.36;28.76;158080.81;1717007;81;21226;-82
2021/03/17 04:51:27;;;;;;;18.37;8.05;;;;;;;26.29;28.69;158063.53;1718282;81;21278;-85
2021/03/17 04:54:00;;;;;;;16.25;7.15;;;;;;;26.20;28.81;158039.64;1682708;83;21728;-79
2021/03/17 04:56:33;;;;;;;14.93;7.40;;;;;;;26.22;28.91;158043.59;1660547;84;21360;-80
2021/03/17 04:59:15;;;;;;;13.22;6.60;;;;;;;26.19;28.79;158035.63;1715324;81;21886;-80
2021/03/17 05:01:58;;;;;;;14.98;7.37;;;;;;;26.22;28.92;158044.91;1720811;81;21835;-80
2021/03/17 05:04:42;;;;;;;14.53;6.65;;;;;;;26.25;28.86;158052.89;1672033;83;21209;-83
2021/03/17 05:07:15;;;;;;;14.05;7.42;;;;;;;26.23;28.93;158046.27;1671098;83;21862;-80
2021/03/17 05:09:49;;;;;;;13.18;6.35;;;;;;;26.24;28.90;158050.23;1670781;83;21343;-75
2021/03/17 05:12:22;;;;;;;13.43;7.10;;;;;;;26.30;28.89;158064.84;1711157;81;21321;-77
2021/03/17 05:14:57;;;;;;;14.73;6.90;;;;;;;26.30;28.80;158064.84;1716717;81;21344;-74
2021/03/17 05:17:35;;;;;;;11.43;6.72;;;;;;;26.27;28.77;158056.91;1696738;82;21164;-76
2021/03/17 05:20:12;;;;;;;14.35;6.53;;;;;;;26.26;28.77;158055.56;1717082;81;21806;-72
2021/03/17 05:22:44;;;;;;;13.53;6.78;;;;;;;26.36;28.77;158082.13;1714988;81;21415;-75
2021/03/17 05:25:21;;;;;;;10.43;6.17;;;;;;;26.26;28.75;158054.25;1719142;81;22142;-77
2021/03/17 05:27:56;;;;;;;20.48;7.80;;;;;;;26.24;28.83;158048.92;1712286;82;21305;-77
2021/03/17 05:30:28;;;;;;;13.48;5.85;;;;;;;26.30;28.72;158064.84;1716970;81;21892;-80
2021/03/17 05:33:04;;;;;;;13.08;6.65;;;;;;;26.21;28.74;158040.94;1682933;83;21191;-78
2021/03/17 05:35:38;;;;;;;10.65;6.17;;;;;;;26.18;28.72;158032.95;1671058;83;21271;-80
2021/03/17 05:38:10;;;;;;;11.18;5.85;;;;;;;26.05;28.78;157999.78;1718558;81;21336;-77
2021/03/17 05:40:44;;;;;;;12.25;6.37;;;;;;;25.98;28.89;157981.16;1717554;81;21329;-77
2021/03/17 05:43:17;;;;;;;13.38;7.30;;;;;;;26.05;28.85;157998.42;1716288;81;21190;-80
2021/03/17 05:45:50;;;;;;;16.48;7.17;;;;;;;26.04;28.91;157997.11;1718649;81;21416;-80
2021/03/17 05:48:23;;;;;;;14.25;7.30;;;;;;;26.13;28.88;158019.70;1721906;81;21211;-77
2021/03/17 05:50:56;;;;;;;15.45;8.35;;;;;;;26.16;28.75;158027.64;1719461;81;21179;-77
2021/03/17 05:53:29;;;;;;;12.73;6.50;;;;;;;26.18;28.85;158032.95;1733038;81;21325;-79
2021/03/17 05:56:04;;;;;;;11.03;6.28;;;;;;;26.24;28.75;158048.92;1765308;80;21185;-81
2021/03/17 05:58:36;;;;;;;18.57;7.37;;;;;;;26.32;28.74;158070.16;1729626;81;21234;-79
2021/03/17 06:01:09;;;;;;;16.32;6.50;;;;;;;26.29;28.67;158062.19;1757658;81;21718;-81
2021/03/17 06:03:42;;;;;;;11.55;6.58;;;;;;;26.13;28.84;158021.02;1731985;82;21303;-79
2021/03/17 06:06:29;;;;;;;14.00;7.60;;;;;;;26.29;28.76;158062.19;1755916;80;21351;-79
2021/03/17 06:09:02;;;;;;;13.40;6.83;;;;;;;26.40;28.67;158092.77;1724287;81;21178;-79
2021/03/17 06:11:35;;;;;;;13.40;7.42;;;;;;;26.58;28.59;158140.63;1754896;81;21327;-79
2021/03/17 06:14:09;;;;;;;17.40;7.20;;;;;;;26.59;28.55;158143.28;1716580;83;21213;-79
2021/03/17 06:16:42;;;;;;;19.55;7.53;;;;;;;26.65;28.54;158159.25;1716756;83;21181;-78
2021/03/17 06:19:17;;;;;;;14.05;6.78;;;;;;;26.77;28.48;158191.16;1716818;83;21843;-78
2021/03/17 06:21:50;;;;;;;15.50;7.25;;;;;;;26.82;28.44;158204.41;1743361;81;21175;-78
2021/03/17 06:24:23;;;;;;;14.58;7.00;;;;;;;26.97;28.40;158245.59;1770259;81;21202;-79
2021/03/17 06:26:55;;;;;;;14.85;7.15;;;;;;;27.14;28.28;158289.56;1770280;81;21238;-79
2021/03/17 06:29:27;;;;;;;18.00;7.70;;;;;;;27.22;28.23;158310.81;1762200;81;21291;-78
2021/03/17 06:32:00;;;;;;;12.40;5.85;;;;;;;27.23;28.25;158314.78;1716655;83;21201;-79
2021/03/17 06:34:32;;;;;;;13.35;6.33;;;;;;;27.23;28.09;158314.78;1727243;82;21300;-78
2021/03/17 06:37:05;;;;;;;15.45;6.33;;;;;;;27.17;28.04;158298.88;1716895;83;22152;-78
2021/03/17 06:39:37;;;;;;;12.45;6.53;;;;;;;27.08;28.05;158274.89;1703972;83;21364;-78
2021/03/17 06:42:11;;;;;;;14.00;6.62;;;;;;;26.91;28.14;158228.33;1705030;83;21320;-78
2021/03/17 06:44:43;;;;;;;14.68;6.67;;;;;;;26.75;28.22;158187.12;1721126;83;21337;-78
2021/03/17 06:47:21;;;;;;;13.65;6.45;;;;;;;26.79;28.36;158197.78;1644291;83;21190;-79
2021/03/17 06:49:54;;;;;;;12.18;6.47;;;;;;;26.89;28.36;158223.05;1718281;83;21182;-79
2021/03/17 06:52:29;;;;;;;11.25;6.35;;;;;;;27.02;28.30;158257.61;1714813;83;21168;-78
2021/03/17 06:55:17;;;;;;;15.38;6.47;;;;;;;27.11;28.20;158282.89;1712171;84;21177;-78
2021/03/17 06:57:51;;;;;;;13.90;6.20;;;;;;;27.13;28.29;158286.91;1712203;84;21216;-79
2021/03/17 07:00:34;;;;;;;13.78;6.47;;;;;;;27.24;28.30;158317.45;1716194;83;21812;-78
2021/03/17 07:03:15;;;;;;;15.13;7.03;;;;;;;27.34;28.22;158344.03;1716930;83;21689;-78
2021/03/17 07:05:48;;;;;;;17.50;7.35;;;;;;;27.33;28.11;158341.37;1717155;83;21304;-78
2021/03/17 07:08:32;;;;;;;14.40;7.53;;;;;;;27.23;28.27;158313.48;1716700;83;21316;-78
2021/03/17 07:11:04;;;;;;;15.13;6.60;;;;;;;27.25;28.27;158318.81;1729710;83;21664;-78
2021/03/17 07:13:38;;;;;;;14.25;7.17;;;;;;;27.20;28.25;158305.50;1715401;83;21167;-78
2021/03/17 07:16:11;;;;;;;19.10;7.35;;;;;;;27.17;28.32;158297.50;1727631;83;21218;-77
2021/03/17 07:18:43;;;;;;;19.90;7.50;;;;;;;27.23;28.33;158313.48;1728067;83;21198;-78
2021/03/17 07:21:16;;;;;;;12.98;6.58;;;;;;;27.30;28.29;158332.08;1725657;83;21194;-78
2021/03/17 07:23:48;;;;;;;13.32;6.53;;;;;;;27.27;28.34;158325.45;1715343;83;21238;-76
2021/03/17 07:26:30;;;;;;;14.43;7.15;;;;;;;27.27;28.38;158325.45;1712659;83;21245;-77
2021/03/17 07:29:16;;;;;;;12.05;6.90;;;;;;;27.29;28.34;158330.77;1716826;83;21193;-79
2021/03/17 07:31:50;;;;;;;15.30;6.30;;;;;;;27.67;28.00;158433.20;1728717;83;21299;-78
2021/03/17 07:34:27;;;;;;;10.23;5.83;;;;;;;27.55;28.23;158399.87;1708715;84;21178;-78
2021/03/17 07:37:02;;;;;;;12.00;6.30;;;;;;;27.57;28.21;158405.20;1704197;84;21329;-78
2021/03/17 07:39:42;;;;;;;14.68;6.37;;;;;;;27.65;28.23;158426.56;1704401;84;21856;-78
2021/03/17 07:42:15;;;;;;;12.60;6.27;;;;;;;27.73;28.21;158447.83;1713264;81;21381;-77
2021/03/17 07:44:47;;;;;;;13.28;6.58;;;;;;;27.74;28.18;158450.50;1770151;79;21356;-76
2021/03/17 07:47:19;;;;;;;16.42;6.80;;;;;;;27.65;28.29;158426.56;1770071;81;21182;-76
2021/03/17 07:49:52;;;;;;;14.33;6.20;;;;;;;27.87;28.12;158485.08;1770078;81;21875;-77
2021/03/17 07:52:30;;;;;;;12.95;6.47;;;;;;;28.09;27.93;158543.59;1719850;82;21305;-76
2021/03/17 07:55:09;;;;;;;9.80;6.30;;;;;;;28.23;27.88;158582.22;1701836;84;21186;-76
2021/03/17 07:57:41;;;;;;;21.50;6.92;;;;;;;28.27;27.90;158591.52;1701921;84;21183;-76
2021/03/17 08:00:16;;;;;;;14.15;6.80;;;;;;;27.87;28.14;158485.08;1707111;81;21163;-76
2021/03/17 08:02:49;;;;;;;13.00;6.67;;;;;;;27.36;28.51;158348.06;1704798;81;21178;-76
2021/03/17 08:05:23;;;;;;;13.20;6.35;;;;;;;27.32;28.68;158337.41;1710281;84;21344;-76
2021/03/17 08:07:55;;;;;;;17.02;6.60;;;;;;;27.37;28.73;158350.72;1673418;86;21343;-77
2021/03/17 08:10:27;;;;;;;13.80;6.67;;;;;;;27.42;28.74;158363.98;1648199;84;21235;-76
2021/03/17 08:12:59;;;;;;;14.05;7.30;;;;;;;27.40;28.76;158360.02;1711034;84;21308;-77
2021/03/17 08:15:32;;;;;;;13.32;7.10;;;;;;;27.50;28.77;158386.61;1711130;84;21908;-76
2021/03/17 08:18:24;;;;;;;13.13;6.83;;;;;;;27.55;28.60;158399.87;1711012;84;21796;-76
2021/03/17 08:20:57;;;;;;;18.07;7.53;;;;;;;27.49;28.59;158385.25;1715760;81;21311;-77
2021/03/17 08:23:40;;;;;;;14.90;7.35;;;;;;;27.59;28.58;158410.53;1721884;83;21816;-76
2021/03/17 08:26:28;;;;;;;18.30;8.10;;;;;;;27.74;28.38;158451.80;1721721;83;21716;-76
2021/03/17 08:29:00;;;;;;;16.42;7.92;;;;;;;27.72;28.57;158446.47;1721634;83;21201;-76
2021/03/17 08:31:43;;;;;;;11.33;6.10;;;;;;;28.09;28.06;158544.91;1748532;81;21297;-77
2021/03/17 08:34:23;;;;;;;13.18;6.42;;;;;;;27.86;28.24;158483.72;1768912;81;21706;-76
2021/03/17 08:36:59;;;;;;;16.50;7.05;;;;;;;27.90;28.29;158494.38;1768007;81;21214;-76
2021/03/17 08:39:40;;;;;;;13.78;6.17;;;;;;;27.86;28.20;158482.41;1767965;81;21805;-76
2021/03/17 08:42:28;;;;;;;16.12;6.37;;;;;;;27.85;28.15;158479.75;1723839;81;21824;-77
2021/03/17 08:45:03;;;;;;;10.68;6.03;;;;;;;27.99;28.04;158517.00;1722863;83;21282;-76
2021/03/17 08:47:48;;;;;;;15.50;6.20;;;;;;;28.10;27.99;158546.27;1722716;83;21306;-76
2021/03/17 08:50:24;;;;;;;10.45;5.20;;;;;;;28.09;27.94;158543.59;1723394;81;21322;-77
2021/03/17 08:52:57;;;;;;;13.00;6.12;;;;;;;28.07;28.00;158538.27;1770538;81;21304;-76
2021/03/17 08:55:39;;;;;;;15.30;7.58;;;;;;;28.17;28.15;158566.23;1767955;81;21237;-78
2021/03/17 08:58:20;;;;;;;14.50;6.95;;;;;;;28.34;27.98;158611.48;1767905;81;21171;-76
2021/03/17 09:01:00;;;;;;;15.63;6.83;;;;;;;28.55;27.85;158668.72;1761898;81;21829;-77
2021/03/17 09:03:46;;;;;;;11.05;6.25;;;;;;;28.66;27.77;158698.00;1737928;81;21805;-77
2021/03/17 09:06:22;;;;;;;12.15;6.55;;;;;;;28.78;27.53;158729.94;1742041;82;21207;-76
2021/03/17 09:09:19;;;;;;;12.73;6.50;;;;;;;28.65;27.37;158693.97;1758020;81;21286;-77
2021/03/17 09:11:51;;;;;;;11.55;5.50;;;;;;;28.33;27.63;158607.52;1729046;83;21311;-76
2021/03/17 09:14:29;;;;;;;15.78;6.60;;;;;;;28.05;27.95;158534.30;1731418;83;21850;-76
2021/03/17 09:17:23;;;;;;;13.10;5.85;;;;;;;28.05;27.98;158532.94;1758831;81;21147;-76
2021/03/17 09:20:06;;;;;;;17.42;6.15;;;;;;;28.02;28.13;158524.94;1767861;81;21317;-77
2021/03/17 09:23:00;;;;;;;14.07;5.70;;;;;;;28.26;28.06;158588.86;1773922;81;21305;-76
2021/03/17 09:25:53;;;;;;;13.22;6.03;;;;;;;28.32;27.99;158606.16;1773475;81;21309;-78
2021/03/17 09:28:35;;;;;;;12.20;6.25;;;;;;;28.22;27.99;158579.50;1710819;84;21190;-76
2021/03/17 09:31:11;;;;;;;15.25;5.75;;;;;;;28.33;27.99;158607.52;1708068;84;21381;-76
2021/03/17 09:33:44;;;;;;;10.82;5.87;;;;;;;28.29;28.00;158596.84;1694438;84;21811;-76
2021/03/17 09:36:20;;;;;;;13.88;5.80;;;;;;;28.29;28.11;158596.84;1676995;83;21186;-77
2021/03/17 09:38:54;;;;;;;9.50;5.50;;;;;;;28.42;27.97;158631.45;1722390;83;21340;-76
2021/03/17 09:41:29;;;;;;;14.78;5.65;;;;;;;28.37;27.71;158618.12;1719718;83;21166;-76
2021/03/17 09:44:04;;;;;;;15.25;6.00;;;;;;;28.19;27.88;158570.20;1722044;83;21189;-77
2021/03/17 09:46:41;;;;;;;15.78;5.42;;;;;;;27.98;28.02;158515.64;1722049;83;21715;-76
2021/03/17 09:49:18;;;;;;;14.10;6.22;;;;;;;27.90;28.27;158493.02;1722157;83;21237;-76
2021/03/17 09:51:57;;;;;;;10.60;5.65;;;;;;;27.97;28.36;158511.67;1706280;83;21852;-76
2021/03/17 09:54:32;;;;;;;11.33;4.72;;;;;;;28.14;27.99;158556.88;1743525;82;21313;-76
2021/03/17 09:57:07;;;;;;;11.43;5.45;;;;;;;28.13;28.01;158555.56;1743440;82;21400;-76
2021/03/17 09:59:47;;;;;;;10.20;4.85;;;;;;;28.00;28.14;158520.97;1701120;84;21193;-76
2021/03/17 10:02:29;;;;;;;12.37;5.60;;;;;;;28.07;28.13;158538.27;1689743;85;21361;-76
2021/03/17 10:05:02;;;;;;;12.80;4.70;;;;;;;28.11;28.13;158548.94;1689890;85;21813;-76
2021/03/17 10:07:34;;;;;;;7.90;4.55;;;;;;;28.36;28.15;158616.81;1689825;85;21230;-76
2021/03/17 10:10:08;;;;;;;11.73;5.87;;;;;;;28.60;27.84;158682.00;1685291;85;21254;-76
2021/03/17 10:12:42;;;;;;;6.95;4.25;;;;;;;28.76;27.75;158724.61;1680174;85;21196;-76
2021/03/17 10:15:17;;;;;;;12.07;5.87;;;;;;;28.84;27.69;158744.64;1638222;85;21200;-76
2021/03/17 10:17:50;;;;;;;11.00;5.72;;;;;;;28.99;27.72;158784.58;1680235;85;21207;-76
2021/03/17 10:20:25;;;;;;;14.13;6.00;;;;;;;29.12;27.51;158819.16;1680383;85;21187;-76
2021/03/17 10:23:02;;;;;;;12.58;5.72;;;;;;;29.29;27.63;158864.44;1680258;85;21206;-78
2021/03/17 10:25:35;;;;;;;9.95;5.28;;;;;;;29.34;27.31;158880.39;1680289;85;21255;-76
2021/03/17 10:28:11;;;;;;;11.70;5.60;;;;;;;29.20;27.33;158840.48;1680160;85;21734;-76
2021/03/17 10:30:46;;;;;;;9.08;4.25;;;;;;;29.17;27.33;158832.48;1680338;85;21218;-76
2021/03/17 10:33:21;;;;;;;8.98;4.45;;;;;;;29.15;27.40;158828.52;1680086;85;21230;-76
2021/03/17 10:35:54;;;;;;;11.15;5.03;;;;;;;29.26;27.40;158857.80;1680716;85;21220;-80
2021/03/17 10:38:27;;;;;;;8.78;4.17;;;;;;;29.38;27.39;158891.13;1652294;86;21245;-77
2021/03/17 10:41:00;;;;;;;5.67;3.87;;;;;;;29.34;27.34;158880.39;1686689;85;21334;-76
2021/03/17 10:43:34;;;;;;;10.53;4.15;;;;;;;29.14;27.31;158824.48;1647500;86;21358;-76
2021/03/17 10:46:06;;;;;;;10.72;4.17;;;;;;;29.14;27.36;158825.84;1659036;85;21219;-76
2021/03/17 10:48:43;;;;;;;9.00;4.10;;;;;;;29.21;27.25;158843.16;1659052;86;21231;-76
2021/03/17 10:51:16;;;;;;;6.62;4.12;;;;;;;29.18;27.15;158836.47;1662348;83;21354;-77
2021/03/17 10:53:49;;;;;;;8.03;4.10;;;;;;;29.24;27.21;158852.47;1679095;85;21205;-76
2021/03/17 10:56:23;;;;;;;11.57;4.78;;;;;;;29.03;27.13;158796.56;1683401;85;21869;-76
2021/03/17 10:58:55;;;;;;;8.50;4.12;;;;;;;28.80;27.36;158735.28;1723620;83;21702;-78
2021/03/17 11:01:30;;;;;;;8.30;4.40;;;;;;;28.74;27.36;158719.28;1752969;82;21816;-77
2021/03/17 11:04:08;;;;;;;7.08;3.40;;;;;;;28.57;27.65;158674.06;1740392;82;21319;-76
2021/03/17 11:06:40;;;;;;;7.85;3.80;;;;;;;28.44;27.61;158639.45;1722047;83;21697;-76
2021/03/17 11:09:13;;;;;;;8.95;3.50;;;;;;;28.73;27.54;158716.61;1728464;83;21183;-76
2021/03/17 11:11:55;;;;;;;9.23;4.42;;;;;;;28.91;27.37;158764.61;1658901;84;21167;-77
2021/03/17 11:14:38;;;;;;;9.58;4.10;;;;;;;29.03;27.21;158795.20;1770650;81;21230;-76
2021/03/17 11:17:11;;;;;;;7.25;3.83;;;;;;;28.98;27.17;158783.22;1770336;81;21301;-76
2021/03/17 11:19:44;;;;;;;12.90;5.33;;;;;;;29.00;27.07;158787.19;1722093;81;21170;-76
2021/03/17 11:22:33;;;;;;;22.77;9.03;;;;;;;28.88;27.15;158755.25;1716511;83;21863;-77
2021/03/17 11:25:07;;;;;;;11.57;5.22;;;;;;;28.93;27.26;158768.58;1716969;83;21331;-76
2021/03/17 11:27:43;;;;;;;6.40;3.60;;;;;;;29.07;27.21;158807.17;1716990;83;21376;-78
2021/03/17 11:30:15;;;;;;;11.73;4.35;;;;;;;29.22;27.07;158847.13;1701179;84;21211;-76
2021/03/17 11:32:48;;;;;;;10.43;4.62;;;;;;;29.32;27.04;158873.75;1710509;84;21253;-76
2021/03/17 11:35:20;;;;;;;11.73;6.20;;;;;;;29.54;26.99;158932.39;1710458;84;21191;-76
2021/03/17 11:37:54;;;;;;;8.90;4.90;;;;;;;29.63;26.82;158957.72;1699359;83;21739;-86
2021/03/17 11:40:26;;;;;;;7.12;4.67;;;;;;;29.59;26.71;158947.03;1700883;83;21342;-76
2021/03/17 11:43:22;;;;;;;9.43;4.42;;;;;;;29.43;26.77;158903.09;1718336;83;21334;-77
2021/03/17 11:45:55;;;;;;;9.45;4.05;;;;;;;29.41;27.02;158897.77;1699951;83;21354;-77
2021/03/17 11:48:30;;;;;;;12.37;5.00;;;;;;;29.41;26.94;158897.77;1654799;87;21349;-78
2021/03/17 11:51:06;;;;;;;12.63;4.75;;;;;;;29.37;26.89;158887.09;1679230;85;21428;-78
2021/03/17 11:53:39;;;;;;;9.90;4.40;;;;;;;29.15;26.95;158828.52;1703006;83;21335;-76
2021/03/17 11:56:11;;;;;;;11.60;5.12;;;;;;;28.81;27.21;158736.63;1669263;86;21324;-76
2021/03/17 11:58:43;;;;;;;11.18;5.97;;;;;;;28.47;27.58;158647.39;1669445;84;21347;-76
2021/03/17 12:01:17;;;;;;;7.80;4.20;;;;;;;28.31;27.79;158603.50;1671369;84;21197;-76
2021/03/17 12:03:51;;;;;;;8.08;4.87;;;;;;;28.31;27.79;158603.50;1688955;83;21187;-77